createdAt,value
2023-12-13T00:04:12.938Z,91.68
2023-12-13T00:09:15.940Z,91.65
2023-12-13T00:14:20.583Z,91.55
2023-12-13T00:19:23.777Z,91.71
2023-12-13T00:24:27.134Z,91.65
2023-12-13T00:29:30.683Z,91.53
2023-12-13T00:34:33.766Z,91.51
2023-12-13T00:39:36.921Z,91.52
2023-12-13T00:44:41.021Z,91.49
2023-12-13T00:49:44.391Z,91.51
2023-12-13T00:54:47.992Z,91.69
2023-12-13T00:59:50.984Z,91.74
2023-12-13T01:04:54.115Z,92.01
2023-12-13T01:10:00.451Z,91.65
2023-12-13T01:15:03.883Z,91.75
2023-12-13T01:20:08.509Z,91.84
2023-12-13T01:25:12.109Z,91.84
2023-12-13T01:30:15.453Z,92.06
2023-12-13T01:35:19.657Z,91.88
2023-12-13T01:40:22.750Z,92.03
2023-12-13T01:45:25.950Z,91.97
2023-12-13T01:50:29.058Z,91.88
2023-12-13T01:55:32.422Z,91.92
2023-12-13T02:00:37.643Z,91.79
2023-12-13T02:05:45.034Z,91.83
2023-12-13T02:10:49.324Z,91.81
2023-12-13T02:15:52.806Z,91.97
2023-12-13T02:20:58.333Z,91.89
2023-12-13T02:26:04.419Z,91.87
2023-12-13T02:31:10.204Z,92.10
2023-12-13T02:36:13.386Z,91.96
2023-12-13T02:41:20.256Z,92.01
2023-12-13T02:46:27.749Z,92.21
2023-12-13T02:51:33.230Z,91.86
2023-12-13T02:56:37.038Z,92.25
2023-12-13T03:01:46.036Z,92.12
2023-12-13T03:06:49.196Z,92.10
2023-12-13T03:11:52.147Z,92.04
2023-12-13T03:16:55.246Z,92.00
2023-12-13T03:22:00.941Z,92.03
2023-12-13T03:27:04.545Z,92.28
2023-12-13T03:32:10.228Z,92.46
2023-12-13T03:37:15.599Z,92.58
2023-12-13T03:42:18.656Z,92.60
2023-12-13T03:47:21.888Z,92.62
2023-12-13T03:52:25.008Z,92.65
2023-12-13T03:57:28.416Z,92.74
2023-12-13T04:02:31.383Z,92.79
2023-12-13T04:07:34.634Z,92.86
2023-12-13T04:12:37.990Z,92.83
2023-12-13T04:17:40.999Z,92.79
2023-12-13T04:22:45.946Z,92.84
2023-12-13T04:27:49.235Z,92.90
2023-12-13T04:32:52.361Z,92.89
2023-12-13T04:37:55.599Z,92.79
2023-12-13T04:43:00.578Z,92.70
2023-12-13T04:48:04.186Z,92.44
2023-12-13T04:53:07.430Z,91.57
2023-12-13T04:58:10.655Z,91.42
2023-12-13T05:03:13.759Z,91.77
2023-12-13T05:08:16.845Z,91.29
2023-12-13T05:13:20.159Z,91.28
2023-12-13T05:18:23.488Z,91.65
2023-12-13T05:23:27.907Z,91.78
2023-12-13T05:28:30.999Z,91.89
2023-12-13T05:33:34.149Z,91.90
2023-12-13T05:38:37.647Z,92.18
2023-12-13T05:43:40.827Z,92.07
2023-12-13T05:48:44.066Z,91.79
2023-12-13T05:53:47.517Z,91.92
2023-12-13T05:58:50.754Z,92.04
2023-12-13T06:03:53.817Z,91.91
2023-12-13T06:08:56.879Z,92.08
2023-12-13T06:13:59.830Z,92.57
2023-12-13T06:19:06.484Z,92.65
2023-12-13T06:24:17.256Z,92.69
2023-12-13T06:29:26.582Z,92.64
2023-12-13T06:34:43.488Z,92.76
2023-12-13T06:39:49.554Z,93.03
2023-12-13T06:45:24.854Z,93.15
2023-12-13T06:50:30.405Z,92.88
2023-12-13T06:55:36.206Z,92.93
2023-12-13T07:00:41.759Z,93.07
2023-12-13T07:05:46.675Z,93.04
2023-12-13T07:10:51.105Z,93.06
2023-12-13T07:15:56.302Z,93.07
2023-12-13T07:21:01.913Z,93.27
2023-12-13T07:26:05.377Z,93.39
2023-12-13T07:31:20.100Z,93.32
2023-12-13T07:36:23.862Z,93.21
2023-12-13T07:41:33.583Z,93.29
2023-12-13T07:46:41.182Z,93.39
2023-12-13T07:51:49.319Z,93.41
2023-12-13T07:56:54.770Z,93.38
2023-12-13T08:02:01.100Z,93.28
2023-12-13T08:07:07.233Z,93.27
2023-12-13T08:12:13.712Z,93.29
2023-12-13T08:17:24.123Z,93.31
2023-12-13T08:22:31.621Z,93.36
2023-12-13T08:27:35.571Z,93.28
2023-12-13T08:32:43.330Z,93.09
2023-12-13T08:37:46.454Z,93.03
2023-12-13T08:42:49.688Z,93.00
2023-12-13T08:47:56.540Z,92.86
2023-12-13T08:53:09.270Z,92.83
2023-12-13T08:58:20.424Z,92.81
2023-12-13T09:03:38.433Z,92.75
2023-12-13T09:08:48.873Z,92.50
2023-12-13T09:14:01.622Z,92.66
2023-12-13T09:19:08.216Z,92.60
2023-12-13T09:24:22.943Z,92.61
2023-12-13T09:29:34.382Z,92.71
2023-12-13T09:34:41.656Z,92.68
2023-12-13T09:39:48.911Z,92.54
2023-12-13T09:44:54.268Z,92.51
2023-12-13T09:49:58.821Z,92.43
2023-12-13T09:55:16.598Z,92.33
2023-12-13T10:00:22.355Z,92.07
2023-12-13T10:05:32.769Z,91.99
2023-12-13T10:10:39.117Z,92.05
2023-12-13T10:15:46.011Z,92.13
2023-12-13T10:20:49.665Z,92.22
2023-12-13T10:25:56.669Z,92.24
2023-12-13T10:31:00.719Z,92.04
2023-12-13T10:36:13.154Z,92.13
2023-12-13T10:41:17.620Z,92.13
2023-12-13T10:46:24.003Z,92.04
2023-12-13T10:51:32.700Z,92.03
2023-12-13T10:56:39.855Z,92.13
2023-12-13T11:01:47.444Z,92.02
2023-12-13T11:06:54.108Z,91.94
2023-12-13T11:12:01.222Z,91.75
2023-12-13T11:17:05.092Z,91.45
2023-12-13T11:22:13.481Z,91.54
2023-12-13T11:27:25.794Z,91.51
2023-12-13T11:32:39.981Z,91.44
2023-12-13T11:37:56.468Z,91.57
2023-12-13T11:43:01.961Z,91.61
2023-12-13T11:48:15.237Z,91.62
2023-12-13T11:53:18.786Z,91.43
2023-12-13T11:58:34.701Z,91.48
2023-12-13T12:03:38.424Z,91.58
2023-12-13T12:08:41.396Z,91.50
2023-12-13T12:13:45.715Z,91.48
2023-12-13T12:18:50.456Z,91.48
2023-12-13T12:23:59.874Z,91.47
2023-12-13T12:29:03.129Z,91.54
2023-12-13T12:34:14.591Z,91.61
2023-12-13T12:39:18.548Z,91.64
2023-12-13T12:44:25.745Z,91.54
2023-12-13T12:49:29.571Z,91.56
2023-12-13T12:54:43.927Z,91.57
2023-12-13T12:59:54.464Z,91.46
2023-12-13T13:05:00.730Z,91.49
2023-12-13T13:10:15.114Z,91.51
2023-12-13T13:15:29.335Z,91.54
2023-12-13T13:20:32.584Z,91.61
2023-12-13T13:25:43.089Z,91.60
2023-12-13T13:30:46.692Z,91.58
2023-12-13T13:35:53.908Z,91.62
2023-12-13T13:41:03.757Z,91.70
2023-12-13T13:46:07.534Z,91.73
2023-12-13T13:51:10.942Z,91.82
2023-12-13T13:56:24.625Z,91.88
2023-12-13T14:01:40.650Z,91.89
2023-12-13T14:06:44.864Z,91.89
2023-12-13T14:11:49.162Z,91.82
2023-12-13T14:16:52.327Z,91.82
2023-12-13T14:21:59.218Z,91.67
2023-12-13T14:27:02.525Z,91.60
2023-12-13T14:32:13.979Z,91.64
2023-12-13T14:37:20.566Z,91.64
2023-12-13T14:42:23.792Z,91.72
2023-12-13T14:47:34.496Z,91.83
2023-12-13T14:52:47.503Z,91.96
2023-12-13T14:57:53.425Z,91.97
2023-12-13T15:03:01.626Z,92.04
2023-12-13T15:08:10.930Z,92.07
2023-12-13T15:13:29.510Z,92.02
2023-12-13T15:18:34.379Z,92.01
2023-12-13T15:23:42.828Z,92.00
2023-12-13T15:28:45.980Z,91.97
2023-12-13T15:33:49.920Z,91.97
2023-12-13T15:39:22.048Z,91.97
2023-12-13T15:44:33.929Z,91.96
2023-12-13T15:49:40.165Z,91.93
2023-12-13T15:54:49.327Z,91.96
2023-12-13T16:00:03.487Z,91.96
2023-12-13T16:05:19.471Z,91.92
2023-12-13T16:10:27.981Z,91.85
2023-12-13T16:15:38.186Z,91.83
2023-12-13T16:26:38.042Z,91.76
2023-12-13T16:31:41.931Z,91.68
2023-12-13T16:37:08.587Z,91.68
2023-12-13T16:42:20.054Z,91.67
2023-12-13T16:47:36.099Z,91.68
2023-12-13T16:52:41.152Z,91.81
2023-12-13T16:57:50.345Z,91.83
2023-12-13T17:03:03.233Z,91.75
2023-12-13T17:08:07.322Z,91.57
2023-12-13T17:14:06.847Z,91.39
2023-12-13T17:19:41.840Z,91.32
2023-12-13T17:24:45.208Z,91.29
2023-12-13T17:29:48.459Z,91.19
2023-12-13T17:34:54.148Z,91.15
2023-12-13T17:40:12.062Z,91.20
2023-12-13T17:45:23.190Z,91.22
2023-12-13T17:50:48.720Z,91.25
2023-12-13T18:01:38.500Z,91.14
2023-12-13T18:06:48.125Z,91.15
2023-12-13T18:11:52.002Z,91.26
2023-12-13T18:16:58.877Z,91.38
2023-12-13T18:22:17.804Z,91.36
2023-12-13T18:27:30.669Z,91.23
2023-12-13T18:32:37.317Z,91.18
2023-12-13T18:38:33.047Z,91.21
2023-12-13T18:43:55.524Z,91.26
2023-12-13T18:49:01.283Z,91.30
2023-12-13T18:54:04.617Z,91.37
2023-12-13T18:59:10.253Z,91.39
2023-12-13T19:04:14.094Z,91.43
2023-12-13T19:09:19.769Z,91.50
2023-12-13T19:14:22.971Z,91.46
2023-12-13T19:19:26.331Z,91.47
2023-12-13T19:24:30.052Z,91.50
2023-12-13T19:29:33.280Z,91.51
2023-12-13T19:34:37.789Z,91.44
2023-12-13T19:39:41.450Z,91.43
2023-12-13T19:44:44.582Z,91.40
2023-12-13T19:49:47.532Z,91.41
2023-12-13T19:54:50.574Z,91.45
2023-12-13T19:59:53.621Z,91.48
2023-12-13T20:04:56.861Z,91.44
2023-12-13T20:09:59.994Z,91.44
2023-12-13T20:15:03.118Z,91.42
2023-12-13T20:20:08.095Z,91.43
2023-12-13T20:25:11.276Z,91.46
2023-12-13T20:30:14.321Z,91.50
2023-12-13T20:35:18.017Z,91.50
2023-12-13T20:40:20.945Z,91.58
2023-12-13T20:45:24.188Z,91.67
2023-12-13T20:50:27.387Z,91.70
2023-12-13T20:55:30.418Z,91.78
2023-12-13T21:00:34.495Z,91.89
2023-12-13T21:05:37.900Z,91.99
2023-12-13T21:10:41.640Z,92.09
2023-12-13T21:15:44.814Z,92.18
2023-12-13T21:20:47.718Z,92.32
2023-12-13T21:25:50.938Z,92.42
2023-12-13T21:30:54.450Z,92.47
2023-12-13T21:35:57.875Z,92.57
2023-12-13T21:41:00.969Z,92.64
2023-12-13T21:46:04.433Z,92.69
2023-12-13T21:51:07.512Z,92.71
2023-12-13T21:56:10.569Z,92.72
2023-12-13T22:01:13.676Z,92.74
2023-12-13T22:06:16.788Z,92.71
2023-12-13T22:11:19.785Z,92.72
2023-12-13T22:16:23.544Z,92.79
2023-12-13T22:21:26.939Z,92.72
2023-12-13T22:26:30.003Z,92.72
2023-12-13T22:31:35.381Z,92.71
2023-12-13T22:36:40.505Z,92.67
2023-12-13T22:41:43.597Z,92.62
2023-12-13T22:46:49.338Z,92.63
2023-12-13T22:52:18.905Z,92.64
2023-12-13T22:57:15.659Z,92.63
2023-12-13T23:02:18.845Z,92.63
2023-12-13T23:07:21.976Z,92.61
2023-12-13T23:12:25.119Z,92.64
2023-12-13T23:17:31.242Z,92.68
2023-12-13T23:22:37.916Z,92.68
2023-12-13T23:27:43.634Z,92.68
2023-12-13T23:32:46.740Z,92.64
2023-12-13T23:37:52.319Z,92.64
2023-12-13T23:42:55.333Z,92.63
2023-12-13T23:47:58.786Z,92.59
2023-12-13T23:53:02.505Z,92.53
2023-12-13T23:58:05.659Z,92.53
